sensor_id;sensor_type;location;lat;lon;timestamp;pressure;altitude;pressure_sealevel;temperature;humidity
74973;BME280;63529;56.320;43.990;2023-02-08T00:00:25;101953.47;;;-5.30;61.77
74973;BME280;63529;56.320;43.990;2023-02-08T00:02:51;101951.72;;;-5.29;62.14
74973;BME280;63529;56.320;43.990;2023-02-08T00:05:17;101953.38;;;-5.28;62.02
74973;BME280;63529;56.320;43.990;2023-02-08T00:07:43;101949.03;;;-5.28;62.15
74973;BME280;63529;56.320;43.990;2023-02-08T00:10:10;101954.22;;;-5.28;62.01
74973;BME280;63529;56.320;43.990;2023-02-08T00:12:37;101954.94;;;-5.26;62.25
74973;BME280;63529;56.320;43.990;2023-02-08T00:15:04;101947.84;;;-5.24;62.08
74973;BME280;63529;56.320;43.990;2023-02-08T00:17:30;101941.69;;;-5.23;62.15
74973;BME280;63529;56.320;43.990;2023-02-08T00:19:56;101945.13;;;-5.22;62.07
74973;BME280;63529;56.320;43.990;2023-02-08T00:22:22;101936.50;;;-5.23;62.22
74973;BME280;63529;56.320;43.990;2023-02-08T00:24:49;101946.91;;;-5.23;62.34
74973;BME280;63529;56.320;43.990;2023-02-08T00:27:16;101953.56;;;-5.19;62.32
74973;BME280;63529;56.320;43.990;2023-02-08T00:29:42;101962.31;;;-5.20;62.26
74973;BME280;63529;56.320;43.990;2023-02-08T00:32:08;101955.22;;;-5.18;62.49
74973;BME280;63529;56.320;43.990;2023-02-08T00:34:36;101953.56;;;-5.19;62.56
74973;BME280;63529;56.320;43.990;2023-02-08T00:37:04;101944.00;;;-5.18;62.46
74973;BME280;63529;56.320;43.990;2023-02-08T00:39:30;101942.22;;;-5.18;62.52
74973;BME280;63529;56.320;43.990;2023-02-08T00:41:56;101939.63;;;-5.18;62.56
74973;BME280;63529;56.320;43.990;2023-02-08T00:44:22;101936.91;;;-5.16;62.54
74973;BME280;63529;56.320;43.990;2023-02-08T00:46:48;101934.28;;;-5.16;62.60
74973;BME280;63529;56.320;43.990;2023-02-08T00:49:13;101938.66;;;-5.16;62.56
74973;BME280;63529;56.320;43.990;2023-02-08T00:51:39;101945.66;;;-5.17;62.49
74973;BME280;63529;56.320;43.990;2023-02-08T00:54:05;101937.00;;;-5.18;62.60
74973;BME280;63529;56.320;43.990;2023-02-08T00:56:32;101942.22;;;-5.18;62.64
74973;BME280;63529;56.320;43.990;2023-02-08T00:58:58;101950.03;;;-5.18;62.55
74973;BME280;63529;56.320;43.990;2023-02-08T01:01:24;101935.59;;;-5.22;62.86
74973;BME280;63529;56.320;43.990;2023-02-08T01:03:51;101950.97;;;-5.19;62.68
74973;BME280;63529;56.320;43.990;2023-02-08T01:06:17;101946.81;;;-5.21;62.95
74973;BME280;63529;56.320;43.990;2023-02-08T01:08:44;101947.03;;;-5.24;62.85
74973;BME280;63529;56.320;43.990;2023-02-08T01:11:12;101948.78;;;-5.25;63.11
74973;BME280;63529;56.320;43.990;2023-02-08T01:13:39;101939.31;;;-5.26;62.95
74973;BME280;63529;56.320;43.990;2023-02-08T01:16:13;101941.94;;;-5.26;62.93
74973;BME280;63529;56.320;43.990;2023-02-08T01:18:41;101935.78;;;-5.25;63.06
74973;BME280;63529;56.320;43.990;2023-02-08T01:21:12;101935.06;;;-5.27;63.07
74973;BME280;63529;56.320;43.990;2023-02-08T01:23:39;101924.66;;;-5.27;63.26
74973;BME280;63529;56.320;43.990;2023-02-08T01:26:06;101931.53;;;-5.26;63.33
74973;BME280;63529;56.320;43.990;2023-02-08T01:28:33;101921.81;;;-5.24;63.19
74973;BME280;63529;56.320;43.990;2023-02-08T01:30:59;101928.81;;;-5.24;63.26
74973;BME280;63529;56.320;43.990;2023-02-08T01:33:31;101923.47;;;-5.23;63.13
74973;BME280;63529;56.320;43.990;2023-02-08T01:35:57;101936.31;;;-5.20;63.17
74973;BME280;63529;56.320;43.990;2023-02-08T01:38:23;101931.41;;;-5.24;63.31
74973;BME280;63529;56.320;43.990;2023-02-08T01:40:50;101938.19;;;-5.22;63.30
74973;BME280;63529;56.320;43.990;2023-02-08T01:43:31;101932.13;;;-5.22;63.25
74973;BME280;63529;56.320;43.990;2023-02-08T01:45:57;101932.97;;;-5.22;63.12
74973;BME280;63529;56.320;43.990;2023-02-08T01:48:26;101928.81;;;-5.24;63.17
74973;BME280;63529;56.320;43.990;2023-02-08T01:53:30;101916.63;;;-5.24;63.11
74973;BME280;63529;56.320;43.990;2023-02-08T01:56:00;101910.81;;;-5.27;63.29
74973;BME280;63529;56.320;43.990;2023-02-08T01:58:29;101907.38;;;-5.28;63.53
74973;BME280;63529;56.320;43.990;2023-02-08T02:00:57;101908.22;;;-5.27;63.46
74973;BME280;63529;56.320;43.990;2023-02-08T02:03:23;101906.53;;;-5.28;63.36
74973;BME280;63529;56.320;43.990;2023-02-08T02:05:55;101896.97;;;-5.28;63.50
74973;BME280;63529;56.320;43.990;2023-02-08T02:08:22;101897.06;;;-5.29;63.42
74973;BME280;63529;56.320;43.990;2023-02-08T02:10:49;101894.44;;;-5.29;63.53
74973;BME280;63529;56.320;43.990;2023-02-08T02:13:24;101898.72;;;-5.28;63.53
74973;BME280;63529;56.320;43.990;2023-02-08T02:15:53;101892.78;;;-5.30;63.63
74973;BME280;63529;56.320;43.990;2023-02-08T02:18:26;101898.13;;;-5.32;63.56
74973;BME280;63529;56.320;43.990;2023-02-08T02:34:37;101924.25;;;-5.33;64.04
74973;BME280;63529;56.320;43.990;2023-02-08T02:37:29;101907.06;;;-5.36;63.75
74973;BME280;63529;56.320;43.990;2023-02-08T02:40:16;101915.69;;;-5.35;63.82
74973;BME280;63529;56.320;43.990;2023-02-08T02:48:52;101916.44;;;-5.33;63.87
74973;BME280;63529;56.320;43.990;2023-02-08T02:56:40;101900.09;;;-5.35;64.01
74973;BME280;63529;56.320;43.990;2023-02-08T02:59:10;101892.41;;;-5.37;63.98
74973;BME280;63529;56.320;43.990;2023-02-08T03:01:38;101891.44;;;-5.36;63.98
74973;BME280;63529;56.320;43.990;2023-02-08T03:15:10;101882.50;;;-5.32;64.21
74973;BME280;63529;56.320;43.990;2023-02-08T03:20:28;101884.16;;;-5.31;63.88
74973;BME280;63529;56.320;43.990;2023-02-08T03:23:23;101884.03;;;-5.29;64.08
74973;BME280;63529;56.320;43.990;2023-02-08T03:26:02;101884.03;;;-5.29;63.87
74973;BME280;63529;56.320;43.990;2023-02-08T03:29:05;101878.97;;;-5.31;63.83
74973;BME280;63529;56.320;43.990;2023-02-08T03:36:43;101897.41;;;-5.34;64.10
74973;BME280;63529;56.320;43.990;2023-02-08T03:39:15;101904.25;;;-5.33;63.96
74973;BME280;63529;56.320;43.990;2023-02-08T03:41:45;101899.25;;;-5.36;63.89
74973;BME280;63529;56.320;43.990;2023-02-08T03:44:24;101898.22;;;-5.33;63.89
74973;BME280;63529;56.320;43.990;2023-02-08T03:47:18;101913.00;;;-5.34;63.91
74973;BME280;63529;56.320;43.990;2023-02-08T03:49:50;101897.41;;;-5.34;64.17
74973;BME280;63529;56.320;43.990;2023-02-08T03:52:17;101894.88;;;-5.35;63.96
74973;BME280;63529;56.320;43.990;2023-02-08T03:55:23;101900.19;;;-5.37;64.18
74973;BME280;63529;56.320;43.990;2023-02-08T03:58:14;101895.13;;;-5.38;63.89
74973;BME280;63529;56.320;43.990;2023-02-08T04:00:44;101895.13;;;-5.38;63.94
74973;BME280;63529;56.320;43.990;2023-02-08T04:03:20;101889.19;;;-5.40;64.19
74973;BME280;63529;56.320;43.990;2023-02-08T04:05:48;101894.41;;;-5.40;64.41
74973;BME280;63529;56.320;43.990;2023-02-08T04:08:14;101899.59;;;-5.40;64.23
74973;BME280;63529;56.320;43.990;2023-02-08T04:10:40;101906.47;;;-5.39;64.18
74973;BME280;63529;56.320;43.990;2023-02-08T04:13:06;101899.25;;;-5.36;64.28
74973;BME280;63529;56.320;43.990;2023-02-08T04:15:32;101899.25;;;-5.36;64.21
74973;BME280;63529;56.320;43.990;2023-02-08T04:17:58;101888.25;;;-5.39;64.14
74973;BME280;63529;56.320;43.990;2023-02-08T04:20:23;101887.41;;;-5.40;64.32
74973;BME280;63529;56.320;43.990;2023-02-08T04:22:49;101892.50;;;-5.38;64.18
74973;BME280;63529;56.320;43.990;2023-02-08T04:25:15;101882.22;;;-5.40;64.22
74973;BME280;63529;56.320;43.990;2023-02-08T04:27:41;101880.44;;;-5.39;64.16
74973;BME280;63529;56.320;43.990;2023-02-08T04:30:08;101876.25;;;-5.42;64.39
74973;BME280;63529;56.320;43.990;2023-02-08T04:32:34;101868.47;;;-5.42;64.38
74973;BME280;63529;56.320;43.990;2023-02-08T04:35:00;101875.56;;;-5.44;64.29
74973;BME280;63529;56.320;43.990;2023-02-08T04:37:26;101876.63;;;-5.47;64.23
74973;BME280;63529;56.320;43.990;2023-02-08T04:39:51;101875.78;;;-5.47;64.30
74973;BME280;63529;56.320;43.990;2023-02-08T04:42:17;101863.91;;;-5.51;64.50
74973;BME280;63529;56.320;43.990;2023-02-08T04:44:43;101868.19;;;-5.50;64.46
74973;BME280;63529;56.320;43.990;2023-02-08T04:47:09;101855.78;;;-5.47;64.50
74973;BME280;63529;56.320;43.990;2023-02-08T04:49:35;101862.44;;;-5.42;64.45
74973;BME280;63529;56.320;43.990;2023-02-08T04:52:01;101857.84;;;-5.39;64.46
74973;BME280;63529;56.320;43.990;2023-02-08T04:54:27;101848.78;;;-5.33;64.43
74973;BME280;63529;56.320;43.990;2023-02-08T04:56:53;101846.78;;;-5.30;64.20
74973;BME280;63529;56.320;43.990;2023-02-08T04:59:19;101836.16;;;-5.27;64.44
74973;BME280;63529;56.320;43.990;2023-02-08T05:01:44;101832.38;;;-5.23;64.36
74973;BME280;63529;56.320;43.990;2023-02-08T05:04:10;101843.41;;;-5.19;64.37
74973;BME280;63529;56.320;43.990;2023-02-08T05:06:36;101840.38;;;-5.13;63.81
74973;BME280;63529;56.320;43.990;2023-02-08T05:09:02;101839.19;;;-5.09;63.93
74973;BME280;63529;56.320;43.990;2023-02-08T05:11:31;101840.78;;;-5.06;64.07
74973;BME280;63529;56.320;43.990;2023-02-08T05:13:57;101840.44;;;-5.02;63.97
74973;BME280;63529;56.320;43.990;2023-02-08T05:16:23;101838.56;;;-5.00;63.81
74973;BME280;63529;56.320;43.990;2023-02-08T05:18:49;101844.34;;;-4.96;63.76
74973;BME280;63529;56.320;43.990;2023-02-08T05:21:14;101845.69;;;-4.91;63.67
74973;BME280;63529;56.320;43.990;2023-02-08T05:23:40;101846.19;;;-4.85;63.85
74973;BME280;63529;56.320;43.990;2023-02-08T05:26:08;101832.09;;;-4.83;63.38
74973;BME280;63529;56.320;43.990;2023-02-08T05:28:35;101835.94;;;-4.76;63.61
74973;BME280;63529;56.320;43.990;2023-02-08T05:31:21;101840.91;;;-4.73;63.17
74973;BME280;63529;56.320;43.990;2023-02-08T05:33:48;101830.50;;;-4.73;63.13
74973;BME280;63529;56.320;43.990;2023-02-08T05:36:14;101832.84;;;-4.70;63.45
74973;BME280;63529;56.320;43.990;2023-02-08T05:38:41;101840.78;;;-4.71;63.27
74973;BME280;63529;56.320;43.990;2023-02-08T05:41:11;101826.72;;;-4.69;63.61
74973;BME280;63529;56.320;43.990;2023-02-08T05:43:37;101833.34;;;-4.65;63.49
74973;BME280;63529;56.320;43.990;2023-02-08T05:46:03;101824.50;;;-4.62;63.68
74973;BME280;63529;56.320;43.990;2023-02-08T05:48:30;101820.69;;;-4.58;63.37
74973;BME280;63529;56.320;43.990;2023-02-08T05:50:57;101817.88;;;-4.55;63.18
74973;BME280;63529;56.320;43.990;2023-02-08T05:53:24;101818.69;;;-4.54;63.29
74973;BME280;63529;56.320;43.990;2023-02-08T05:55:49;101805.69;;;-4.54;63.38
74973;BME280;63529;56.320;43.990;2023-02-08T05:58:16;101803.91;;;-4.54;63.17
74973;BME280;63529;56.320;43.990;2023-02-08T06:00:43;101803.66;;;-4.51;63.23
74973;BME280;63529;56.320;43.990;2023-02-08T06:03:09;101805.44;;;-4.51;63.37
74973;BME280;63529;56.320;43.990;2023-02-08T06:05:37;101800.84;;;-4.48;63.42
74973;BME280;63529;56.320;43.990;2023-02-08T06:08:03;101801.31;;;-4.43;63.05
74973;BME280;63529;56.320;43.990;2023-02-08T06:10:29;101790.66;;;-4.40;63.44
74973;BME280;63529;56.320;43.990;2023-02-08T06:12:56;101798.25;;;-4.37;63.10
74973;BME280;63529;56.320;43.990;2023-02-08T06:15:22;101791.25;;;-4.36;63.18
74973;BME280;63529;56.320;43.990;2023-02-08T06:17:48;101789.81;;;-4.40;62.99
74973;BME280;63529;56.320;43.990;2023-02-08T06:20:13;101783.66;;;-4.39;63.01
74973;BME280;63529;56.320;43.990;2023-02-08T06:22:39;101782.97;;;-4.41;63.47
74973;BME280;63529;56.320;43.990;2023-02-08T06:25:06;101787.94;;;-4.38;63.45
74973;BME280;63529;56.320;43.990;2023-02-08T06:27:31;101788.03;;;-4.40;63.25
74973;BME280;63529;56.320;43.990;2023-02-08T06:29:57;101791.59;;;-4.41;63.50
74973;BME280;63529;56.320;43.990;2023-02-08T06:32:23;101796.94;;;-4.42;63.32
74973;BME280;63529;56.320;43.990;2023-02-08T06:34:50;101798.34;;;-4.38;63.60
74973;BME280;63529;56.320;43.990;2023-02-08T06:37:17;101786.88;;;-4.35;63.58
74973;BME280;63529;56.320;43.990;2023-02-08T06:39:43;101793.63;;;-4.33;63.31
74973;BME280;63529;56.320;43.990;2023-02-08T06:42:09;101783.31;;;-4.34;63.48
74973;BME280;63529;56.320;43.990;2023-02-08T06:44:35;101786.50;;;-4.31;63.75
74973;BME280;63529;56.320;43.990;2023-02-08T06:47:02;101789.94;;;-4.30;63.53
74973;BME280;63529;56.320;43.990;2023-02-08T06:49:28;101790.66;;;-4.28;63.31
74973;BME280;63529;56.320;43.990;2023-02-08T06:51:54;101786.88;;;-4.24;63.42
74973;BME280;63529;56.320;43.990;2023-02-08T06:54:20;101787.50;;;-4.10;63.47
74973;BME280;63529;56.320;43.990;2023-02-08T06:56:46;101775.03;;;-3.95;63.23
74973;BME280;63529;56.320;43.990;2023-02-08T06:59:12;101775.72;;;-3.82;62.90
74973;BME280;63529;56.320;43.990;2023-02-08T07:01:38;101778.78;;;-3.65;62.83
74973;BME280;63529;56.320;43.990;2023-02-08T07:04:04;101779.22;;;-3.49;62.60
74973;BME280;63529;56.320;43.990;2023-02-08T07:06:30;101778.00;;;-3.34;61.90
74973;BME280;63529;56.320;43.990;2023-02-08T07:08:56;101782.09;;;-3.20;62.08
74973;BME280;63529;56.320;43.990;2023-02-08T07:11:22;101779.91;;;-3.04;61.63
74973;BME280;63529;56.320;43.990;2023-02-08T07:13:49;101769.25;;;-2.80;61.59
74973;BME280;63529;56.320;43.990;2023-02-08T07:16:17;101771.34;;;-2.53;60.89
74973;BME280;63529;56.320;43.990;2023-02-08T07:18:43;101764.16;;;-2.30;60.41
74973;BME280;63529;56.320;43.990;2023-02-08T07:21:09;101756.00;;;-2.06;60.12
74973;BME280;63529;56.320;43.990;2023-02-08T07:23:39;101758.41;;;-1.83;59.41
74973;BME280;63529;56.320;43.990;2023-02-08T07:26:08;101758.97;;;-1.70;58.90
74973;BME280;63529;56.320;43.990;2023-02-08T07:28:35;101748.25;;;-1.57;58.60
74973;BME280;63529;56.320;43.990;2023-02-08T07:31:09;101744.03;;;-1.49;58.35
74973;BME280;63529;56.320;43.990;2023-02-08T07:33:35;101738.91;;;-1.50;58.07
74973;BME280;63529;56.320;43.990;2023-02-08T07:36:01;101726.50;;;-1.58;58.15
74973;BME280;63529;56.320;43.990;2023-02-08T07:38:30;101726.91;;;-1.62;58.28
74973;BME280;63529;56.320;43.990;2023-02-08T07:41:01;101724.94;;;-1.70;57.85
74973;BME280;63529;56.320;43.990;2023-02-08T07:43:28;101726.75;;;-1.71;58.33
74973;BME280;63529;56.320;43.990;2023-02-08T07:45:58;101717.09;;;-1.70;58.36
74973;BME280;63529;56.320;43.990;2023-02-08T07:48:23;101718.91;;;-1.71;58.22
74973;BME280;63529;56.320;43.990;2023-02-08T07:50:49;101726.63;;;-1.69;58.51
74973;BME280;63529;56.320;43.990;2023-02-08T07:53:15;101724.94;;;-1.70;58.19
74973;BME280;63529;56.320;43.990;2023-02-08T07:55:44;101722.34;;;-1.70;58.13
74973;BME280;63529;56.320;43.990;2023-02-08T07:58:10;101714.09;;;-1.66;58.01
74973;BME280;63529;56.320;43.990;2023-02-08T08:00:35;101716.03;;;-1.58;57.98
74973;BME280;63529;56.320;43.990;2023-02-08T08:03:01;101713.16;;;-1.55;57.70
74973;BME280;63529;56.320;43.990;2023-02-08T08:05:27;101720.72;;;-1.52;57.66
74973;BME280;63529;56.320;43.990;2023-02-08T08:07:57;101717.28;;;-1.52;57.76
74973;BME280;63529;56.320;43.990;2023-02-08T08:10:23;101713.41;;;-1.58;57.82
74973;BME280;63529;56.320;43.990;2023-02-08T08:12:48;101713.13;;;-1.65;57.94
74973;BME280;63529;56.320;43.990;2023-02-08T08:15:14;101705.53;;;-1.68;58.16
74973;BME280;63529;56.320;43.990;2023-02-08T08:17:40;101718.22;;;-1.73;58.24
74973;BME280;63529;56.320;43.990;2023-02-08T08:20:10;101733.34;;;-1.76;58.61
74973;BME280;63529;56.320;43.990;2023-02-08T08:22:36;101717.91;;;-1.79;58.34
74973;BME280;63529;56.320;43.990;2023-02-08T08:25:02;101716.13;;;-1.88;58.14
74973;BME280;63529;56.320;43.990;2023-02-08T08:27:29;101711.00;;;-2.00;58.49
74973;BME280;63529;56.320;43.990;2023-02-08T08:29:55;101711.78;;;-2.09;58.60
74973;BME280;63529;56.320;43.990;2023-02-08T08:32:21;101710.94;;;-2.19;58.83
74973;BME280;63529;56.320;43.990;2023-02-08T08:34:47;101706.50;;;-2.28;58.72
74973;BME280;63529;56.320;43.990;2023-02-08T08:37:13;101712.50;;;-2.37;58.93
74973;BME280;63529;56.320;43.990;2023-02-08T08:39:39;101703.22;;;-2.51;58.99
74973;BME280;63529;56.320;43.990;2023-02-08T08:42:05;101697.81;;;-2.59;59.24
74973;BME280;63529;56.320;43.990;2023-02-08T08:44:31;101693.13;;;-2.65;59.44
74973;BME280;63529;56.320;43.990;2023-02-08T08:46:58;101700.00;;;-2.64;59.80
74973;BME280;63529;56.320;43.990;2023-02-08T08:49:26;101691.63;;;-2.58;59.53
74973;BME280;63529;56.320;43.990;2023-02-08T08:51:52;101705.00;;;-2.52;59.40
74973;BME280;63529;56.320;43.990;2023-02-08T08:54:19;101690.47;;;-2.44;59.57
74973;BME280;63529;56.320;43.990;2023-02-08T08:56:46;101689.09;;;-2.39;59.38
74973;BME280;63529;56.320;43.990;2023-02-08T08:59:12;101687.88;;;-2.35;59.03
74973;BME280;63529;56.320;43.990;2023-02-08T09:01:38;101697.13;;;-2.31;59.13
74973;BME280;63529;56.320;43.990;2023-02-08T09:04:07;101696.88;;;-2.28;58.87
74973;BME280;63529;56.320;43.990;2023-02-08T09:06:33;101691.63;;;-2.28;59.01
74973;BME280;63529;56.320;43.990;2023-02-08T09:09:00;101694.13;;;-2.26;58.67
74973;BME280;63529;56.320;43.990;2023-02-08T09:11:26;101692.75;;;-2.21;58.74
74973;BME280;63529;56.320;43.990;2023-02-08T09:13:52;101688.81;;;-2.05;59.11
74973;BME280;63529;56.320;43.990;2023-02-08T09:16:22;101672.03;;;-1.83;58.90
74973;BME280;63529;56.320;43.990;2023-02-08T09:18:48;101672.06;;;-1.54;58.59
74973;BME280;63529;56.320;43.990;2023-02-08T09:21:20;101676.34;;;-1.34;58.04
74973;BME280;63529;56.320;43.990;2023-02-08T09:23:46;101674.69;;;-1.35;57.66
74973;BME280;63529;56.320;43.990;2023-02-08T09:26:14;101664.09;;;-1.43;57.73
74973;BME280;63529;56.320;43.990;2023-02-08T09:28:40;101670.00;;;-1.51;57.79
74973;BME280;63529;56.320;43.990;2023-02-08T09:31:11;101666.81;;;-1.64;58.05
74973;BME280;63529;56.320;43.990;2023-02-08T09:33:37;101666.97;;;-1.75;58.19
74973;BME280;63529;56.320;43.990;2023-02-08T09:36:04;101672.03;;;-1.83;58.44
74973;BME280;63529;56.320;43.990;2023-02-08T09:38:31;101674.25;;;-1.88;58.63
74973;BME280;63529;56.320;43.990;2023-02-08T09:46:16;101656.88;;;-1.70;58.48
74973;BME280;63529;56.320;43.990;2023-02-08T09:48:44;101654.28;;;-1.60;58.19
74973;BME280;63529;56.320;43.990;2023-02-08T09:51:31;101648.91;;;-1.59;58.17
74973;BME280;63529;56.320;43.990;2023-02-08T09:54:04;101636.22;;;-1.64;58.25
74973;BME280;63529;56.320;43.990;2023-02-08T09:56:39;101628.38;;;-1.73;58.46
74973;BME280;63529;56.320;43.990;2023-02-08T09:59:12;101640.50;;;-1.72;58.58
74973;BME280;63529;56.320;43.990;2023-02-08T10:01:40;101638.47;;;-1.69;58.58
74973;BME280;63529;56.320;43.990;2023-02-08T10:04:14;101620.97;;;-1.68;58.47
74973;BME280;63529;56.320;43.990;2023-02-08T10:06:42;101622.72;;;-1.59;58.59
74973;BME280;63529;56.320;43.990;2023-02-08T10:09:13;101627.16;;;-1.50;58.57
74973;BME280;63529;56.320;43.990;2023-02-08T10:22:27;101608.69;;;-0.92;57.95
74973;BME280;63529;56.320;43.990;2023-02-08T10:28:19;101605.31;;;-0.74;57.60
74973;BME280;63529;56.320;43.990;2023-02-08T10:36:17;101580.63;;;-0.44;57.09
74973;BME280;63529;56.320;43.990;2023-02-08T10:38:48;101564.59;;;-0.23;56.91
74973;BME280;63529;56.320;43.990;2023-02-08T10:41:21;101570.69;;;-0.05;56.67
74973;BME280;63529;56.320;43.990;2023-02-08T10:47:02;101579.59;;;0.38;55.75
74973;BME280;63529;56.320;43.990;2023-02-08T10:52:03;101555.59;;;0.33;54.96
74973;BME280;63529;56.320;43.990;2023-02-08T10:54:34;101548.72;;;0.14;55.06
74973;BME280;63529;56.320;43.990;2023-02-08T10:57:03;101556.22;;;-0.09;55.51
74973;BME280;63529;56.320;43.990;2023-02-08T11:02:30;101546.44;;;-0.35;56.62
74973;BME280;63529;56.320;43.990;2023-02-08T11:05:04;101541.19;;;-0.35;56.98
74973;BME280;63529;56.320;43.990;2023-02-08T11:07:31;101531.00;;;-0.38;56.95
74973;BME280;63529;56.320;43.990;2023-02-08T11:10:26;101534.25;;;-0.26;57.08
74973;BME280;63529;56.320;43.990;2023-02-08T11:13:17;101534.16;;;-0.16;56.75
74973;BME280;63529;56.320;43.990;2023-02-08T11:15:51;101529.28;;;-0.11;56.63
74973;BME280;63529;56.320;43.990;2023-02-08T11:18:19;101540.47;;;-0.09;56.60
74973;BME280;63529;56.320;43.990;2023-02-08T11:20:52;101535.97;;;-0.17;56.47
74973;BME280;63529;56.320;43.990;2023-02-08T11:23:27;101535.50;;;-0.30;56.58
74973;BME280;63529;56.320;43.990;2023-02-08T11:25:54;101545.69;;;-0.45;56.81
74973;BME280;63529;56.320;43.990;2023-02-08T11:28:37;101554.03;;;-0.59;57.19
74973;BME280;63529;56.320;43.990;2023-02-08T11:31:16;101552.06;;;-0.75;57.15
74973;BME280;63529;56.320;43.990;2023-02-08T11:34:00;101555.94;;;-0.79;57.50
74973;BME280;63529;56.320;43.990;2023-02-08T11:36:27;101554.97;;;-0.78;57.54
74973;BME280;63529;56.320;43.990;2023-02-08T11:38:54;101547.53;;;-0.83;57.57
74973;BME280;63529;56.320;43.990;2023-02-08T11:41:21;101556.66;;;-0.87;57.73
74973;BME280;63529;56.320;43.990;2023-02-08T11:44:12;101556.41;;;-0.93;57.89
74973;BME280;63529;56.320;43.990;2023-02-08T11:46:45;101542.47;;;-0.94;58.13
74973;BME280;63529;56.320;43.990;2023-02-08T11:49:26;101546.06;;;-0.95;58.21
74973;BME280;63529;56.320;43.990;2023-02-08T11:51:54;101539.19;;;-0.96;58.42
74973;BME280;63529;56.320;43.990;2023-02-08T11:57:01;101542.63;;;-0.95;58.25
74973;BME280;63529;56.320;43.990;2023-02-08T11:59:29;101545.25;;;-0.95;58.11
74973;BME280;63529;56.320;43.990;2023-02-08T12:01:56;101551.63;;;-0.98;58.14
74973;BME280;63529;56.320;43.990;2023-02-08T12:04:23;101563.19;;;-1.00;58.18
74973;BME280;63529;56.320;43.990;2023-02-08T12:06:54;101548.88;;;-1.06;58.08
74973;BME280;63529;56.320;43.990;2023-02-08T12:20:45;101534.34;;;-1.38;58.64
74973;BME280;63529;56.320;43.990;2023-02-08T12:39:58;101524.81;;;-1.76;59.50
74973;BME280;63529;56.320;43.990;2023-02-08T12:52:00;101525.22;;;-2.00;60.30
74973;BME280;63529;56.320;43.990;2023-02-08T12:55:12;101523.31;;;-2.07;60.43
74973;BME280;63529;56.320;43.990;2023-02-08T12:57:19;101516.84;;;-2.13;60.39
74973;BME280;63529;56.320;43.990;2023-02-08T12:59:51;101518.19;;;-2.19;60.72
74973;BME280;63529;56.320;43.990;2023-02-08T13:02:32;101527.84;;;-2.19;60.81
74973;BME280;63529;56.320;43.990;2023-02-08T13:05:03;101516.69;;;-2.21;60.93
74973;BME280;63529;56.320;43.990;2023-02-08T13:07:41;101517.63;;;-2.22;61.11
74973;BME280;63529;56.320;43.990;2023-02-08T13:10:19;101518.91;;;-2.26;61.38
74973;BME280;63529;56.320;43.990;2023-02-08T13:12:55;101503.47;;;-2.29;61.23
74973;BME280;63529;56.320;43.990;2023-02-08T13:15:31;101502.94;;;-2.33;61.53
74973;BME280;63529;56.320;43.990;2023-02-08T13:20:43;101476.50;;;-2.39;61.64
74973;BME280;63529;56.320;43.990;2023-02-08T13:23:40;101476.75;;;-2.42;61.83
74973;BME280;63529;56.320;43.990;2023-02-08T13:26:12;101481.31;;;-2.44;61.90
74973;BME280;63529;56.320;43.990;2023-02-08T13:28:44;101473.88;;;-2.49;61.99
74973;BME280;63529;56.320;43.990;2023-02-08T13:31:13;101468.78;;;-2.51;61.88
74973;BME280;63529;56.320;43.990;2023-02-08T13:33:49;101476.91;;;-2.54;62.14
74973;BME280;63529;56.320;43.990;2023-02-08T13:36:24;101465.88;;;-2.57;62.16
74973;BME280;63529;56.320;43.990;2023-02-08T13:38:52;101479.09;;;-2.59;62.09
74973;BME280;63529;56.320;43.990;2023-02-08T13:41:20;101492.16;;;-2.59;62.36
74973;BME280;63529;56.320;43.990;2023-02-08T13:46:20;101479.63;;;-2.65;62.58
74973;BME280;63529;56.320;43.990;2023-02-08T13:48:50;101485.81;;;-2.66;62.66
74973;BME280;63529;56.320;43.990;2023-02-08T13:56:46;101480.16;;;-2.71;63.08
74973;BME280;63529;56.320;43.990;2023-02-08T13:59:34;101482.78;;;-2.71;63.04
74973;BME280;63529;56.320;43.990;2023-02-08T14:04:47;101470.81;;;-2.74;62.97
74973;BME280;63529;56.320;43.990;2023-02-08T14:10:40;101472.47;;;-2.72;63.12
74973;BME280;63529;56.320;43.990;2023-02-08T14:13:32;101464.06;;;-2.76;63.10
74973;BME280;63529;56.320;43.990;2023-02-08T14:16:30;101470.25;;;-2.77;63.17
74973;BME280;63529;56.320;43.990;2023-02-08T14:18:59;101455.78;;;-2.81;63.22
74973;BME280;63529;56.320;43.990;2023-02-08T14:24:02;101437.09;;;-2.86;63.25
74973;BME280;63529;56.320;43.990;2023-02-08T14:26:29;101433.25;;;-2.82;63.33
74973;BME280;63529;56.320;43.990;2023-02-08T14:28:58;101426.38;;;-2.83;63.28
74973;BME280;63529;56.320;43.990;2023-02-08T14:31:47;101432.44;;;-2.83;63.53
74973;BME280;63529;56.320;43.990;2023-02-08T14:34:29;101417.56;;;-2.82;63.62
74973;BME280;63529;56.320;43.990;2023-02-08T14:39:35;101411.66;;;-2.84;63.68
74973;BME280;63529;56.320;43.990;2023-02-08T14:42:06;101408.09;;;-2.83;63.48
74973;BME280;63529;56.320;43.990;2023-02-08T14:50:09;101393.53;;;-2.86;63.52
74973;BME280;63529;56.320;43.990;2023-02-08T14:52:40;101389.38;;;-2.88;63.55
74973;BME280;63529;56.320;43.990;2023-02-08T14:55:20;101380.84;;;-2.90;63.89
74973;BME280;63529;56.320;43.990;2023-02-08T14:57:53;101389.66;;;-2.91;63.79
74973;BME280;63529;56.320;43.990;2023-02-08T15:00:22;101389.09;;;-2.95;63.95
74973;BME280;63529;56.320;43.990;2023-02-08T15:02:50;101399.53;;;-2.95;63.98
74973;BME280;63529;56.320;43.990;2023-02-08T15:05:20;101392.97;;;-2.99;64.17
74973;BME280;63529;56.320;43.990;2023-02-08T15:07:54;101397.47;;;-3.01;64.22
74973;BME280;63529;56.320;43.990;2023-02-08T15:10:23;101403.66;;;-3.02;64.50
74973;BME280;63529;56.320;43.990;2023-02-08T15:12:53;101406.13;;;-3.01;64.48
74973;BME280;63529;56.320;43.990;2023-02-08T15:15:24;101408.19;;;-3.04;64.56
74973;BME280;63529;56.320;43.990;2023-02-08T15:17:51;101418.06;;;-3.08;64.61
74973;BME280;63529;56.320;43.990;2023-02-08T15:20:21;101428.53;;;-3.08;64.60